sensor_id;sensor_type;location;lat;lon;timestamp;P1;durP1;ratioP1;P2;durP2;ratioP2
19739;SDS011;10027;51.066;13.768;2023-04-10T00:02:22;20.40;;;13.37;;
19739;SDS011;10027;51.066;13.768;2023-04-10T00:04:50;20.47;;;12.60;;
19739;SDS011;10027;51.066;13.768;2023-04-10T00:07:17;19.83;;;13.03;;
19739;SDS011;10027;51.066;13.768;2023-04-10T00:09:45;18.63;;;12.90;;
19739;SDS011;10027;51.066;13.768;2023-04-10T00:12:12;21.53;;;12.80;;
19739;SDS011;10027;51.066;13.768;2023-04-10T00:14:40;20.33;;;12.77;;
19739;SDS011;10027;51.066;13.768;2023-04-10T00:17:08;25.00;;;14.07;;
19739;SDS011;10027;51.066;13.768;2023-04-10T00:19:35;21.63;;;14.13;;
19739;SDS011;10027;51.066;13.768;2023-04-10T00:22:02;21.70;;;13.80;;
19739;SDS011;10027;51.066;13.768;2023-04-10T00:24:30;24.30;;;14.83;;
19739;SDS011;10027;51.066;13.768;2023-04-10T00:26:57;23.47;;;14.07;;
19739;SDS011;10027;51.066;13.768;2023-04-10T00:29:24;23.40;;;14.40;;
19739;SDS011;10027;51.066;13.768;2023-04-10T00:31:51;22.63;;;13.90;;
19739;SDS011;10027;51.066;13.768;2023-04-10T00:34:19;25.70;;;14.27;;
19739;SDS011;10027;51.066;13.768;2023-04-10T00:36:46;28.23;;;14.33;;
19739;SDS011;10027;51.066;13.768;2023-04-10T00:39:13;30.50;;;14.73;;
19739;SDS011;10027;51.066;13.768;2023-04-10T00:41:40;25.43;;;15.40;;
19739;SDS011;10027;51.066;13.768;2023-04-10T00:44:07;21.33;;;13.50;;
19739;SDS011;10027;51.066;13.768;2023-04-10T00:46:36;26.30;;;14.37;;
19739;SDS011;10027;51.066;13.768;2023-04-10T00:49:03;25.50;;;14.90;;
19739;SDS011;10027;51.066;13.768;2023-04-10T00:51:31;25.67;;;14.43;;
19739;SDS011;10027;51.066;13.768;2023-04-10T00:53:59;21.53;;;14.30;;
19739;SDS011;10027;51.066;13.768;2023-04-10T00:56:27;25.13;;;14.63;;
19739;SDS011;10027;51.066;13.768;2023-04-10T00:58:56;27.93;;;14.30;;
19739;SDS011;10027;51.066;13.768;2023-04-10T01:01:24;27.47;;;14.13;;
19739;SDS011;10027;51.066;13.768;2023-04-10T01:03:51;27.03;;;15.23;;
19739;SDS011;10027;51.066;13.768;2023-04-10T01:06:26;22.63;;;14.23;;
19739;SDS011;10027;51.066;13.768;2023-04-10T01:11:53;26.30;;;14.17;;
19739;SDS011;10027;51.066;13.768;2023-04-10T01:17:28;26.07;;;15.10;;
19739;SDS011;10027;51.066;13.768;2023-04-10T01:19:54;25.17;;;14.20;;
19739;SDS011;10027;51.066;13.768;2023-04-10T01:22:37;24.13;;;14.80;;
19739;SDS011;10027;51.066;13.768;2023-04-10T01:27:55;27.47;;;14.77;;
19739;SDS011;10027;51.066;13.768;2023-04-10T01:30:24;27.27;;;14.57;;
19739;SDS011;10027;51.066;13.768;2023-04-10T01:32:53;26.27;;;15.80;;
19739;SDS011;10027;51.066;13.768;2023-04-10T01:35:21;29.73;;;15.60;;
19739;SDS011;10027;51.066;13.768;2023-04-10T01:37:48;31.07;;;15.27;;
19739;SDS011;10027;51.066;13.768;2023-04-10T01:40:17;26.90;;;15.27;;
19739;SDS011;10027;51.066;13.768;2023-04-10T01:42:52;28.33;;;14.87;;
19739;SDS011;10027;51.066;13.768;2023-04-10T01:45:22;28.67;;;15.50;;
19739;SDS011;10027;51.066;13.768;2023-04-10T01:47:51;27.17;;;15.17;;
19739;SDS011;10027;51.066;13.768;2023-04-10T01:50:19;26.43;;;14.77;;
19739;SDS011;10027;51.066;13.768;2023-04-10T01:52:50;25.07;;;14.50;;
19739;SDS011;10027;51.066;13.768;2023-04-10T01:55:18;24.90;;;14.87;;
19739;SDS011;10027;51.066;13.768;2023-04-10T01:57:46;24.97;;;14.67;;
19739;SDS011;10027;51.066;13.768;2023-04-10T02:00:15;26.53;;;14.93;;
19739;SDS011;10027;51.066;13.768;2023-04-10T02:02:42;26.60;;;14.67;;
19739;SDS011;10027;51.066;13.768;2023-04-10T02:05:11;27.73;;;15.23;;
19739;SDS011;10027;51.066;13.768;2023-04-10T02:10:18;33.63;;;15.60;;
19739;SDS011;10027;51.066;13.768;2023-04-10T02:15:19;25.23;;;15.17;;
19739;SDS011;10027;51.066;13.768;2023-04-10T02:17:47;28.13;;;15.23;;
19739;SDS011;10027;51.066;13.768;2023-04-10T02:20:15;27.30;;;14.97;;
19739;SDS011;10027;51.066;13.768;2023-04-10T02:22:43;25.87;;;14.97;;
19739;SDS011;10027;51.066;13.768;2023-04-10T02:25:11;25.90;;;15.00;;
19739;SDS011;10027;51.066;13.768;2023-04-10T02:27:39;25.23;;;14.97;;
19739;SDS011;10027;51.066;13.768;2023-04-10T02:30:06;22.00;;;14.47;;
19739;SDS011;10027;51.066;13.768;2023-04-10T02:32:33;28.73;;;14.60;;
19739;SDS011;10027;51.066;13.768;2023-04-10T02:35:02;24.47;;;14.57;;
19739;SDS011;10027;51.066;13.768;2023-04-10T02:37:29;26.43;;;14.87;;
19739;SDS011;10027;51.066;13.768;2023-04-10T02:39:58;29.87;;;14.97;;
19739;SDS011;10027;51.066;13.768;2023-04-10T02:42:25;25.33;;;15.40;;
19739;SDS011;10027;51.066;13.768;2023-04-10T02:44:52;27.70;;;14.80;;
19739;SDS011;10027;51.066;13.768;2023-04-10T02:47:19;27.87;;;15.17;;
19739;SDS011;10027;51.066;13.768;2023-04-10T02:49:47;26.87;;;14.57;;
19739;SDS011;10027;51.066;13.768;2023-04-10T02:52:14;25.93;;;14.80;;
19739;SDS011;10027;51.066;13.768;2023-04-10T02:54:42;25.53;;;14.60;;
19739;SDS011;10027;51.066;13.768;2023-04-10T02:57:09;25.33;;;14.57;;
19739;SDS011;10027;51.066;13.768;2023-04-10T02:59:36;26.57;;;14.90;;
19739;SDS011;10027;51.066;13.768;2023-04-10T03:02:04;25.30;;;14.60;;
19739;SDS011;10027;51.066;13.768;2023-04-10T03:04:31;25.17;;;14.17;;
19739;SDS011;10027;51.066;13.768;2023-04-10T03:06:59;28.70;;;14.53;;
19739;SDS011;10027;51.066;13.768;2023-04-10T03:09:26;25.10;;;14.10;;
19739;SDS011;10027;51.066;13.768;2023-04-10T03:11:53;26.60;;;14.33;;
19739;SDS011;10027;51.066;13.768;2023-04-10T03:14:20;26.70;;;14.13;;
19739;SDS011;10027;51.066;13.768;2023-04-10T03:16:48;25.77;;;14.20;;
19739;SDS011;10027;51.066;13.768;2023-04-10T03:19:15;26.67;;;14.77;;
19739;SDS011;10027;51.066;13.768;2023-04-10T03:21:44;28.63;;;15.03;;
19739;SDS011;10027;51.066;13.768;2023-04-10T03:24:11;28.63;;;15.13;;
19739;SDS011;10027;51.066;13.768;2023-04-10T03:26:41;30.10;;;14.73;;
19739;SDS011;10027;51.066;13.768;2023-04-10T03:29:08;27.67;;;14.60;;
19739;SDS011;10027;51.066;13.768;2023-04-10T03:31:36;26.87;;;14.47;;
19739;SDS011;10027;51.066;13.768;2023-04-10T03:34:03;22.80;;;14.17;;
19739;SDS011;10027;51.066;13.768;2023-04-10T03:36:30;26.27;;;14.60;;
19739;SDS011;10027;51.066;13.768;2023-04-10T03:38:57;24.83;;;13.83;;
19739;SDS011;10027;51.066;13.768;2023-04-10T03:41:24;24.77;;;12.83;;
19739;SDS011;10027;51.066;13.768;2023-04-10T03:43:52;25.83;;;13.83;;
19739;SDS011;10027;51.066;13.768;2023-04-10T03:46:19;23.67;;;14.13;;
19739;SDS011;10027;51.066;13.768;2023-04-10T03:48:47;21.97;;;12.97;;
19739;SDS011;10027;51.066;13.768;2023-04-10T03:51:16;29.27;;;13.10;;
19739;SDS011;10027;51.066;13.768;2023-04-10T03:53:43;23.23;;;13.50;;
19739;SDS011;10027;51.066;13.768;2023-04-10T03:56:11;27.70;;;13.80;;
19739;SDS011;10027;51.066;13.768;2023-04-10T03:58:38;22.83;;;13.27;;
19739;SDS011;10027;51.066;13.768;2023-04-10T04:01:05;30.10;;;13.47;;
19739;SDS011;10027;51.066;13.768;2023-04-10T04:03:33;27.67;;;13.80;;
19739;SDS011;10027;51.066;13.768;2023-04-10T04:06:00;23.17;;;13.07;;
19739;SDS011;10027;51.066;13.768;2023-04-10T04:08:27;25.80;;;13.90;;
19739;SDS011;10027;51.066;13.768;2023-04-10T04:10:55;26.27;;;13.73;;
19739;SDS011;10027;51.066;13.768;2023-04-10T04:13:22;22.57;;;12.83;;
19739;SDS011;10027;51.066;13.768;2023-04-10T04:15:49;24.93;;;13.53;;
19739;SDS011;10027;51.066;13.768;2023-04-10T04:18:16;21.70;;;13.20;;
19739;SDS011;10027;51.066;13.768;2023-04-10T04:20:43;24.27;;;13.27;;
19739;SDS011;10027;51.066;13.768;2023-04-10T04:23:10;23.57;;;13.13;;
19739;SDS011;10027;51.066;13.768;2023-04-10T04:25:38;23.13;;;13.03;;
19739;SDS011;10027;51.066;13.768;2023-04-10T04:28:05;28.17;;;13.33;;
19739;SDS011;10027;51.066;13.768;2023-04-10T04:30:32;25.60;;;13.43;;
19739;SDS011;10027;51.066;13.768;2023-04-10T04:32:59;24.23;;;13.23;;
19739;SDS011;10027;51.066;13.768;2023-04-10T04:35:26;21.43;;;12.40;;
19739;SDS011;10027;51.066;13.768;2023-04-10T04:37:54;22.10;;;12.57;;
19739;SDS011;10027;51.066;13.768;2023-04-10T04:40:21;22.33;;;12.93;;
19739;SDS011;10027;51.066;13.768;2023-04-10T04:42:48;23.33;;;12.77;;
19739;SDS011;10027;51.066;13.768;2023-04-10T04:45:15;24.00;;;13.33;;
19739;SDS011;10027;51.066;13.768;2023-04-10T04:47:42;24.50;;;12.97;;
19739;SDS011;10027;51.066;13.768;2023-04-10T04:50:10;22.57;;;13.37;;
19739;SDS011;10027;51.066;13.768;2023-04-10T04:52:37;28.00;;;14.07;;
19739;SDS011;10027;51.066;13.768;2023-04-10T04:55:04;21.40;;;12.47;;
19739;SDS011;10027;51.066;13.768;2023-04-10T04:57:31;25.57;;;12.93;;
19739;SDS011;10027;51.066;13.768;2023-04-10T04:59:59;21.67;;;12.50;;
19739;SDS011;10027;51.066;13.768;2023-04-10T05:02:26;22.03;;;12.43;;
19739;SDS011;10027;51.066;13.768;2023-04-10T05:04:53;26.50;;;12.83;;
19739;SDS011;10027;51.066;13.768;2023-04-10T05:07:20;23.20;;;13.23;;
19739;SDS011;10027;51.066;13.768;2023-04-10T05:09:48;22.43;;;12.57;;
19739;SDS011;10027;51.066;13.768;2023-04-10T05:12:15;21.97;;;12.73;;
19739;SDS011;10027;51.066;13.768;2023-04-10T05:14:42;22.00;;;12.50;;
19739;SDS011;10027;51.066;13.768;2023-04-10T05:17:09;20.23;;;12.83;;
19739;SDS011;10027;51.066;13.768;2023-04-10T05:19:36;23.57;;;12.83;;
19739;SDS011;10027;51.066;13.768;2023-04-10T05:22:03;19.23;;;12.23;;
19739;SDS011;10027;51.066;13.768;2023-04-10T05:24:31;23.73;;;13.00;;
19739;SDS011;10027;51.066;13.768;2023-04-10T05:26:58;23.00;;;12.30;;
19739;SDS011;10027;51.066;13.768;2023-04-10T05:29:26;20.63;;;11.80;;
19739;SDS011;10027;51.066;13.768;2023-04-10T05:31:53;18.77;;;11.77;;
19739;SDS011;10027;51.066;13.768;2023-04-10T05:34:20;19.93;;;12.27;;
19739;SDS011;10027;51.066;13.768;2023-04-10T05:36:47;19.87;;;12.17;;
19739;SDS011;10027;51.066;13.768;2023-04-10T05:39:14;22.20;;;12.13;;
19739;SDS011;10027;51.066;13.768;2023-04-10T05:41:42;20.80;;;12.27;;
19739;SDS011;10027;51.066;13.768;2023-04-10T05:44:09;23.10;;;12.47;;
19739;SDS011;10027;51.066;13.768;2023-04-10T05:46:36;22.47;;;12.20;;
19739;SDS011;10027;51.066;13.768;2023-04-10T05:49:04;22.83;;;12.87;;
19739;SDS011;10027;51.066;13.768;2023-04-10T05:51:31;22.97;;;12.67;;
19739;SDS011;10027;51.066;13.768;2023-04-10T05:53:58;22.83;;;12.63;;
19739;SDS011;10027;51.066;13.768;2023-04-10T05:56:26;22.80;;;12.80;;
19739;SDS011;10027;51.066;13.768;2023-04-10T05:58:53;21.47;;;12.70;;
19739;SDS011;10027;51.066;13.768;2023-04-10T06:01:20;20.47;;;11.80;;
19739;SDS011;10027;51.066;13.768;2023-04-10T06:03:48;20.63;;;11.77;;
19739;SDS011;10027;51.066;13.768;2023-04-10T06:06:15;22.10;;;12.73;;
19739;SDS011;10027;51.066;13.768;2023-04-10T06:08:43;21.90;;;12.43;;
19739;SDS011;10027;51.066;13.768;2023-04-10T06:11:10;23.63;;;13.10;;
19739;SDS011;10027;51.066;13.768;2023-04-10T06:13:37;18.37;;;11.67;;
19739;SDS011;10027;51.066;13.768;2023-04-10T06:16:04;23.33;;;12.57;;
19739;SDS011;10027;51.066;13.768;2023-04-10T06:18:32;21.03;;;12.20;;
19739;SDS011;10027;51.066;13.768;2023-04-10T06:20:59;19.33;;;11.90;;
19739;SDS011;10027;51.066;13.768;2023-04-10T06:23:27;23.17;;;12.23;;
19739;SDS011;10027;51.066;13.768;2023-04-10T06:25:54;19.93;;;12.90;;
19739;SDS011;10027;51.066;13.768;2023-04-10T06:28:22;19.27;;;11.83;;
19739;SDS011;10027;51.066;13.768;2023-04-10T06:30:49;22.10;;;13.13;;
19739;SDS011;10027;51.066;13.768;2023-04-10T06:33:16;19.03;;;11.83;;
19739;SDS011;10027;51.066;13.768;2023-04-10T06:35:43;17.37;;;11.07;;
19739;SDS011;10027;51.066;13.768;2023-04-10T06:38:11;18.30;;;11.70;;
19739;SDS011;10027;51.066;13.768;2023-04-10T06:40:38;20.03;;;12.50;;
19739;SDS011;10027;51.066;13.768;2023-04-10T06:43:06;20.07;;;11.97;;
19739;SDS011;10027;51.066;13.768;2023-04-10T06:45:33;18.37;;;11.83;;
19739;SDS011;10027;51.066;13.768;2023-04-10T06:48:00;18.90;;;12.10;;
19739;SDS011;10027;51.066;13.768;2023-04-10T06:50:28;17.30;;;11.10;;
19739;SDS011;10027;51.066;13.768;2023-04-10T06:52:58;21.33;;;12.37;;
19739;SDS011;10027;51.066;13.768;2023-04-10T06:55:25;18.57;;;11.93;;
19739;SDS011;10027;51.066;13.768;2023-04-10T06:57:52;20.30;;;11.90;;
19739;SDS011;10027;51.066;13.768;2023-04-10T07:00:21;18.47;;;11.83;;
19739;SDS011;10027;51.066;13.768;2023-04-10T07:02:49;20.00;;;11.83;;
19739;SDS011;10027;51.066;13.768;2023-04-10T07:05:16;17.47;;;11.20;;
19739;SDS011;10027;51.066;13.768;2023-04-10T07:07:43;17.40;;;11.83;;
19739;SDS011;10027;51.066;13.768;2023-04-10T07:10:12;20.13;;;12.10;;
19739;SDS011;10027;51.066;13.768;2023-04-10T07:12:39;18.47;;;12.13;;
19739;SDS011;10027;51.066;13.768;2023-04-10T07:15:07;18.00;;;11.70;;
19739;SDS011;10027;51.066;13.768;2023-04-10T07:17:34;19.23;;;12.23;;
19739;SDS011;10027;51.066;13.768;2023-04-10T07:20:01;19.00;;;12.20;;
19739;SDS011;10027;51.066;13.768;2023-04-10T07:22:29;20.83;;;12.73;;
19739;SDS011;10027;51.066;13.768;2023-04-10T07:24:57;18.30;;;11.43;;
19739;SDS011;10027;51.066;13.768;2023-04-10T07:27:24;22.57;;;10.83;;
19739;SDS011;10027;51.066;13.768;2023-04-10T07:29:53;19.57;;;11.77;;
19739;SDS011;10027;51.066;13.768;2023-04-10T07:32:22;15.67;;;10.90;;
19739;SDS011;10027;51.066;13.768;2023-04-10T07:34:49;17.53;;;11.63;;
19739;SDS011;10027;51.066;13.768;2023-04-10T07:37:16;16.23;;;11.03;;
19739;SDS011;10027;51.066;13.768;2023-04-10T07:39:44;18.63;;;12.37;;
19739;SDS011;10027;51.066;13.768;2023-04-10T07:42:11;19.50;;;11.77;;
19739;SDS011;10027;51.066;13.768;2023-04-10T07:44:38;17.97;;;11.13;;
19739;SDS011;10027;51.066;13.768;2023-04-10T07:47:05;18.87;;;11.53;;
19739;SDS011;10027;51.066;13.768;2023-04-10T07:49:32;16.53;;;11.53;;
19739;SDS011;10027;51.066;13.768;2023-04-10T07:52:00;16.00;;;11.13;;
19739;SDS011;10027;51.066;13.768;2023-04-10T07:54:27;17.00;;;10.90;;
19739;SDS011;10027;51.066;13.768;2023-04-10T07:56:57;17.97;;;12.00;;
19739;SDS011;10027;51.066;13.768;2023-04-10T07:59:25;17.93;;;11.50;;
19739;SDS011;10027;51.066;13.768;2023-04-10T08:01:52;16.37;;;11.10;;
19739;SDS011;10027;51.066;13.768;2023-04-10T08:04:20;16.87;;;11.17;;
19739;SDS011;10027;51.066;13.768;2023-04-10T08:06:47;16.60;;;10.93;;
19739;SDS011;10027;51.066;13.768;2023-04-10T08:09:15;16.77;;;10.77;;
19739;SDS011;10027;51.066;13.768;2023-04-10T08:11:42;16.47;;;10.77;;
19739;SDS011;10027;51.066;13.768;2023-04-10T08:14:09;15.23;;;10.70;;
19739;SDS011;10027;51.066;13.768;2023-04-10T08:16:43;16.27;;;10.57;;
19739;SDS011;10027;51.066;13.768;2023-04-10T08:19:11;16.73;;;10.60;;
19739;SDS011;10027;51.066;13.768;2023-04-10T08:21:38;16.07;;;10.33;;
19739;SDS011;10027;51.066;13.768;2023-04-10T08:24:05;14.97;;;10.47;;
19739;SDS011;10027;51.066;13.768;2023-04-10T08:26:32;14.90;;;9.30;;
19739;SDS011;10027;51.066;13.768;2023-04-10T08:29:00;13.20;;;9.60;;
19739;SDS011;10027;51.066;13.768;2023-04-10T08:31:27;15.67;;;9.80;;
19739;SDS011;10027;51.066;13.768;2023-04-10T08:33:55;14.40;;;9.70;;
19739;SDS011;10027;51.066;13.768;2023-04-10T08:36:23;13.90;;;9.97;;
19739;SDS011;10027;51.066;13.768;2023-04-10T08:38:52;14.13;;;10.10;;
19739;SDS011;10027;51.066;13.768;2023-04-10T08:41:19;14.20;;;10.13;;
19739;SDS011;10027;51.066;13.768;2023-04-10T08:43:46;16.70;;;10.93;;
19739;SDS011;10027;51.066;13.768;2023-04-10T08:46:15;16.17;;;10.80;;
19739;SDS011;10027;51.066;13.768;2023-04-10T08:51:13;14.73;;;10.50;;
19739;SDS011;10027;51.066;13.768;2023-04-10T08:53:47;15.57;;;10.57;;
19739;SDS011;10027;51.066;13.768;2023-04-10T08:56:16;15.53;;;10.67;;
19739;SDS011;10027;51.066;13.768;2023-04-10T08:58:44;16.70;;;10.90;;
19739;SDS011;10027;51.066;13.768;2023-04-10T09:01:11;15.90;;;10.73;;
19739;SDS011;10027;51.066;13.768;2023-04-10T09:03:38;14.47;;;10.40;;
19739;SDS011;10027;51.066;13.768;2023-04-10T09:06:06;14.47;;;10.10;;
19739;SDS011;10027;51.066;13.768;2023-04-10T09:08:33;14.47;;;10.33;;
19739;SDS011;10027;51.066;13.768;2023-04-10T09:11:01;14.63;;;9.93;;
19739;SDS011;10027;51.066;13.768;2023-04-10T09:13:35;16.13;;;10.40;;
19739;SDS011;10027;51.066;13.768;2023-04-10T09:16:03;13.27;;;9.60;;
19739;SDS011;10027;51.066;13.768;2023-04-10T09:21:10;14.30;;;9.67;;
19739;SDS011;10027;51.066;13.768;2023-04-10T09:23:38;13.97;;;9.63;;
19739;SDS011;10027;51.066;13.768;2023-04-10T09:26:20;12.13;;;8.63;;
19739;SDS011;10027;51.066;13.768;2023-04-10T09:29:01;11.70;;;8.30;;
19739;SDS011;10027;51.066;13.768;2023-04-10T09:31:29;10.60;;;7.97;;
19739;SDS011;10027;51.066;13.768;2023-04-10T09:36:33;11.57;;;8.13;;
19739;SDS011;10027;51.066;13.768;2023-04-10T09:39:03;11.10;;;8.07;;
19739;SDS011;10027;51.066;13.768;2023-04-10T09:41:31;11.63;;;7.97;;
19739;SDS011;10027;51.066;13.768;2023-04-10T09:44:08;10.77;;;7.93;;
19739;SDS011;10027;51.066;13.768;2023-04-10T09:46:35;11.77;;;7.53;;
19739;SDS011;10027;51.066;13.768;2023-04-10T09:49:02;8.47;;;6.27;;
19739;SDS011;10027;51.066;13.768;2023-04-10T09:51:31;11.00;;;7.30;;
19739;SDS011;10027;51.066;13.768;2023-04-10T09:53:59;7.80;;;6.33;;
19739;SDS011;10027;51.066;13.768;2023-04-10T09:56:27;9.97;;;6.33;;
19739;SDS011;10027;51.066;13.768;2023-04-10T09:58:58;9.03;;;6.40;;
19739;SDS011;10027;51.066;13.768;2023-04-10T10:01:26;8.60;;;6.20;;
19739;SDS011;10027;51.066;13.768;2023-04-10T10:03:53;10.13;;;6.87;;
19739;SDS011;10027;51.066;13.768;2023-04-10T10:06:21;8.80;;;6.30;;
19739;SDS011;10027;51.066;13.768;2023-04-10T10:08:49;8.97;;;6.77;;
19739;SDS011;10027;51.066;13.768;2023-04-10T10:11:18;10.57;;;7.70;;
19739;SDS011;10027;51.066;13.768;2023-04-10T10:13:51;12.10;;;8.07;;
19739;SDS011;10027;51.066;13.768;2023-04-10T10:18:58;6.93;;;4.93;;
19739;SDS011;10027;51.066;13.768;2023-04-10T10:21:27;6.87;;;5.43;;
19739;SDS011;10027;51.066;13.768;2023-04-10T10:23:55;8.13;;;6.03;;
19739;SDS011;10027;51.066;13.768;2023-04-10T10:26:24;9.27;;;7.07;;
19739;SDS011;10027;51.066;13.768;2023-04-10T10:28:52;8.53;;;6.70;;
19739;SDS011;10027;51.066;13.768;2023-04-10T10:31:20;9.73;;;6.50;;
19739;SDS011;10027;51.066;13.768;2023-04-10T10:33:50;9.53;;;6.23;;
19739;SDS011;10027;51.066;13.768;2023-04-10T10:36:18;10.73;;;7.23;;
19739;SDS011;10027;51.066;13.768;2023-04-10T10:41:42;9.27;;;6.20;;
19739;SDS011;10027;51.066;13.768;2023-04-10T10:44:12;9.30;;;6.87;;
19739;SDS011;10027;51.066;13.768;2023-04-10T10:46:48;10.00;;;6.77;;
19739;SDS011;10027;51.066;13.768;2023-04-10T10:49:17;9.73;;;7.17;;
19739;SDS011;10027;51.066;13.768;2023-04-10T10:51:47;10.93;;;7.43;;
19739;SDS011;10027;51.066;13.768;2023-04-10T10:54:27;8.70;;;6.40;;
19739;SDS011;10027;51.066;13.768;2023-04-10T10:56:55;10.17;;;6.77;;
19739;SDS011;10027;51.066;13.768;2023-04-10T11:07:10;9.13;;;6.70;;
19739;SDS011;10027;51.066;13.768;2023-04-10T11:12:12;8.53;;;6.47;;
19739;SDS011;10027;51.066;13.768;2023-04-10T11:14:42;8.63;;;6.37;;
19739;SDS011;10027;51.066;13.768;2023-04-10T11:17:11;8.30;;;6.00;;
19739;SDS011;10027;51.066;13.768;2023-04-10T11:19:57;9.07;;;6.37;;
19739;SDS011;10027;51.066;13.768;2023-04-10T11:22:25;9.03;;;6.23;;
19739;SDS011;10027;51.066;13.768;2023-04-10T11:24:53;8.30;;;6.30;;
19739;SDS011;10027;51.066;13.768;2023-04-10T11:27:39;8.57;;;6.47;;
19739;SDS011;10027;51.066;13.768;2023-04-10T11:30:28;10.40;;;6.70;;
19739;SDS011;10027;51.066;13.768;2023-04-10T11:32:54;9.30;;;7.23;;
19739;SDS011;10027;51.066;13.768;2023-04-10T11:35:21;9.73;;;7.20;;
19739;SDS011;10027;51.066;13.768;2023-04-10T11:37:49;10.57;;;7.30;;
19739;SDS011;10027;51.066;13.768;2023-04-10T11:40:16;10.60;;;7.70;;
19739;SDS011;10027;51.066;13.768;2023-04-10T11:42:44;9.10;;;7.00;;
19739;SDS011;10027;51.066;13.768;2023-04-10T11:45:25;9.93;;;7.47;;
19739;SDS011;10027;51.066;13.768;2023-04-10T11:47:53;9.33;;;6.90;;
19739;SDS011;10027;51.066;13.768;2023-04-10T11:50:20;12.70;;;8.17;;
19739;SDS011;10027;51.066;13.768;2023-04-10T11:52:50;12.00;;;8.23;;
19739;SDS011;10027;51.066;13.768;2023-04-10T11:55:34;10.50;;;7.33;;
19739;SDS011;10027;51.066;13.768;2023-04-10T11:58:02;13.67;;;8.10;;
19739;SDS011;10027;51.066;13.768;2023-04-10T12:00:30;11.00;;;8.03;;
19739;SDS011;10027;51.066;13.768;2023-04-10T12:02:57;9.43;;;6.83;;
19739;SDS011;10027;51.066;13.768;2023-04-10T12:05:24;10.00;;;6.83;;
19739;SDS011;10027;51.066;13.768;2023-04-10T12:07:51;11.07;;;7.00;;
19739;SDS011;10027;51.066;13.768;2023-04-10T12:10:19;9.87;;;6.57;;
19739;SDS011;10027;51.066;13.768;2023-04-10T12:12:46;10.27;;;6.50;;
19739;SDS011;10027;51.066;13.768;2023-04-10T12:15:26;9.53;;;6.90;;
19739;SDS011;10027;51.066;13.768;2023-04-10T12:17:53;10.23;;;7.23;;
19739;SDS011;10027;51.066;13.768;2023-04-10T12:20:21;9.67;;;7.07;;
19739;SDS011;10027;51.066;13.768;2023-04-10T12:22:52;11.33;;;7.73;;
19739;SDS011;10027;51.066;13.768;2023-04-10T12:25:21;9.97;;;7.10;;
19739;SDS011;10027;51.066;13.768;2023-04-10T12:27:48;10.27;;;7.43;;
19739;SDS011;10027;51.066;13.768;2023-04-10T12:30:16;12.53;;;7.23;;
19739;SDS011;10027;51.066;13.768;2023-04-10T12:32:49;11.40;;;7.83;;
19739;SDS011;10027;51.066;13.768;2023-04-10T12:35:17;10.67;;;7.80;;
19739;SDS011;10027;51.066;13.768;2023-04-10T12:37:48;10.63;;;7.37;;
19739;SDS011;10027;51.066;13.768;2023-04-10T12:40:16;9.53;;;7.03;;
19739;SDS011;10027;51.066;13.768;2023-04-10T12:42:43;9.80;;;6.87;;
19739;SDS011;10027;51.066;13.768;2023-04-10T12:45:10;8.83;;;6.83;;
19739;SDS011;10027;51.066;13.768;2023-04-10T12:47:49;8.80;;;6.20;;
19739;SDS011;10027;51.066;13.768;2023-04-10T12:50:19;8.03;;;6.10;;
19739;SDS011;10027;51.066;13.768;2023-04-10T12:53:03;7.27;;;5.60;;
19739;SDS011;10027;51.066;13.768;2023-04-10T12:55:32;8.17;;;5.83;;
19739;SDS011;10027;51.066;13.768;2023-04-10T12:58:14;5.83;;;4.90;;
19739;SDS011;10027;51.066;13.768;2023-04-10T13:00:46;7.17;;;5.63;;
19739;SDS011;10027;51.066;13.768;2023-04-10T13:03:13;6.40;;;5.50;;
19739;SDS011;10027;51.066;13.768;2023-04-10T13:05:41;7.07;;;5.50;;
19739;SDS011;10027;51.066;13.768;2023-04-10T13:08:08;7.90;;;5.90;;
19739;SDS011;10027;51.066;13.768;2023-04-10T13:10:35;6.67;;;5.13;;
19739;SDS011;10027;51.066;13.768;2023-04-10T13:13:03;7.67;;;5.23;;
19739;SDS011;10027;51.066;13.768;2023-04-10T13:15:32;6.77;;;5.07;;
19739;SDS011;10027;51.066;13.768;2023-04-10T13:18:00;7.00;;;5.20;;
19739;SDS011;10027;51.066;13.768;2023-04-10T13:20:30;7.77;;;5.43;;
19739;SDS011;10027;51.066;13.768;2023-04-10T13:22:58;8.00;;;5.80;;
19739;SDS011;10027;51.066;13.768;2023-04-10T13:25:25;6.93;;;5.30;;
19739;SDS011;10027;51.066;13.768;2023-04-10T13:27:52;7.07;;;5.80;;
19739;SDS011;10027;51.066;13.768;2023-04-10T13:30:19;9.63;;;5.40;;
19739;SDS011;10027;51.066;13.768;2023-04-10T13:32:47;7.07;;;5.47;;
19739;SDS011;10027;51.066;13.768;2023-04-10T13:35:14;6.70;;;5.07;;
19739;SDS011;10027;51.066;13.768;2023-04-10T13:37:41;6.27;;;5.07;;
19739;SDS011;10027;51.066;13.768;2023-04-10T13:40:08;6.00;;;5.07;;
19739;SDS011;10027;51.066;13.768;2023-04-10T13:42:36;6.73;;;5.10;;
19739;SDS011;10027;51.066;13.768;2023-04-10T13:45:07;5.93;;;4.50;;
19739;SDS011;10027;51.066;13.768;2023-04-10T13:47:34;6.53;;;5.33;;
19739;SDS011;10027;51.066;13.768;2023-04-10T13:50:01;6.00;;;4.70;;
19739;SDS011;10027;51.066;13.768;2023-04-10T13:52:29;5.53;;;4.60;;
19739;SDS011;10027;51.066;13.768;2023-04-10T13:54:56;5.37;;;4.53;;
19739;SDS011;10027;51.066;13.768;2023-04-10T13:57:23;4.43;;;3.83;;
19739;SDS011;10027;51.066;13.768;2023-04-10T13:59:50;5.93;;;3.90;;
19739;SDS011;10027;51.066;13.768;2023-04-10T14:02:17;5.93;;;4.13;;
19739;SDS011;10027;51.066;13.768;2023-04-10T14:04:45;5.50;;;4.40;;
19739;SDS011;10027;51.066;13.768;2023-04-10T14:07:12;4.90;;;3.70;;
19739;SDS011;10027;51.066;13.768;2023-04-10T14:09:39;5.23;;;3.67;;
19739;SDS011;10027;51.066;13.768;2023-04-10T14:12:07;5.70;;;4.00;;
19739;SDS011;10027;51.066;13.768;2023-04-10T14:14:34;5.10;;;4.23;;
19739;SDS011;10027;51.066;13.768;2023-04-10T14:17:01;5.33;;;3.80;;
19739;SDS011;10027;51.066;13.768;2023-04-10T14:19:28;5.10;;;3.73;;
19739;SDS011;10027;51.066;13.768;2023-04-10T14:21:56;6.30;;;4.37;;
19739;SDS011;10027;51.066;13.768;2023-04-10T14:24:23;4.43;;;3.63;;
19739;SDS011;10027;51.066;13.768;2023-04-10T14:26:50;5.90;;;3.53;;
19739;SDS011;10027;51.066;13.768;2023-04-10T14:29:19;3.70;;;3.13;;
19739;SDS011;10027;51.066;13.768;2023-04-10T14:31:58;4.33;;;3.50;;
19739;SDS011;10027;51.066;13.768;2023-04-10T14:34:25;4.47;;;3.50;;
19739;SDS011;10027;51.066;13.768;2023-04-10T14:36:52;4.70;;;3.57;;
19739;SDS011;10027;51.066;13.768;2023-04-10T14:39:22;4.80;;;3.83;;
19739;SDS011;10027;51.066;13.768;2023-04-10T14:41:49;5.00;;;3.30;;
19739;SDS011;10027;51.066;13.768;2023-04-10T14:44:17;4.30;;;3.43;;
19739;SDS011;10027;51.066;13.768;2023-04-10T14:46:44;4.37;;;3.60;;
19739;SDS011;10027;51.066;13.768;2023-04-10T14:49:12;4.50;;;3.60;;
19739;SDS011;10027;51.066;13.768;2023-04-10T14:51:43;4.57;;;3.40;;
19739;SDS011;10027;51.066;13.768;2023-04-10T14:54:10;5.97;;;4.10;;
19739;SDS011;10027;51.066;13.768;2023-04-10T14:56:37;4.63;;;3.77;;
19739;SDS011;10027;51.066;13.768;2023-04-10T14:59:05;4.30;;;3.40;;
19739;SDS011;10027;51.066;13.768;2023-04-10T15:01:33;5.27;;;3.87;;
19739;SDS011;10027;51.066;13.768;2023-04-10T15:04:03;4.90;;;3.73;;